Time;durP1;ratioP1;P1;durP2;ratioP2;P2;SDS_P1;SDS_P2;PMS_P1;PMS_P2;Temp;Humidity;BMP_temperature;BMP_pressure;BME280_temperature;BME280_humidity;BME280_pressure;Samples;Min_cycle;Max_cycle;Signal;HPM_P1;HPM_P2
2022/08/31 00:05:03;;;;;;;4.33;4.03;;;22.30;68.30;22.70;96554.00;;;;5115891;28;20585;-82
2022/08/31 00:07:33;;;;;;;4.30;3.90;;;22.30;68.50;22.70;96549.00;;;;5116973;28;20199;-82
2022/08/31 00:10:02;;;;;;;4.03;3.73;;;22.30;69.40;22.70;96547.00;;;;5116330;28;20309;-83
2022/08/31 00:12:29;;;;;;;4.10;3.80;;;22.30;68.80;22.70;96556.00;;;;5116368;28;20572;-82
2022/08/31 00:14:57;;;;;;;4.23;3.87;;;22.20;68.90;22.80;96550.00;;;;5115133;28;20278;-82
2022/08/31 00:17:25;;;;;;;4.43;3.77;;;22.20;69.10;22.80;96550.00;;;;5116020;28;20614;-82
2022/08/31 00:19:52;;;;;;;4.50;4.20;;;22.30;69.20;22.80;96556.00;;;;5116568;28;20222;-82
2022/08/31 00:22:19;;;;;;;4.23;3.83;;;22.30;69.30;22.80;96562.00;;;;5115915;28;20234;-82
2022/08/31 00:24:46;;;;;;;4.20;3.73;;;22.30;69.30;22.90;96554.00;;;;5115372;28;20194;-82
2022/08/31 00:27:15;;;;;;;4.13;3.83;;;22.30;69.40;22.90;96560.00;;;;5115813;28;20229;-82
2022/08/31 00:29:42;;;;;;;3.67;3.33;;;22.30;69.40;22.90;96556.00;;;;5115160;28;20257;-82
2022/08/31 00:32:09;;;;;;;4.50;4.10;;;22.30;69.50;22.90;96559.00;;;;5115017;28;20238;-82
2022/08/31 00:34:38;;;;;;;4.07;3.77;;;22.40;69.60;23.00;96550.00;;;;5114502;28;20223;-82
2022/08/31 00:37:05;;;;;;;4.07;3.77;;;22.40;69.60;23.00;96548.00;;;;5114576;28;20233;-82
2022/08/31 00:39:32;;;;;;;4.00;3.70;;;22.40;69.60;23.00;96552.00;;;;5114247;28;20650;-82
2022/08/31 00:41:59;;;;;;;3.97;3.67;;;22.40;69.60;23.00;96551.00;;;;5114497;28;20289;-82
2022/08/31 00:44:26;;;;;;;4.10;3.80;;;22.40;69.60;23.00;96554.00;;;;5114393;28;20617;-82
2022/08/31 00:46:54;;;;;;;3.70;3.40;;;22.40;69.60;23.00;96550.00;;;;5114771;28;20668;-82
2022/08/31 00:49:25;;;;;;;3.90;3.60;;;22.50;69.70;23.00;96547.00;;;;5114561;28;20301;-82
2022/08/31 00:51:59;;;;;;;3.87;3.57;;;22.50;69.70;23.10;96546.00;;;;5114789;28;20198;-82
2022/08/31 00:54:33;;;;;;;4.07;3.77;;;22.50;69.70;23.10;96537.00;;;;5113805;28;20194;-83
2022/08/31 00:57:01;;;;;;;5.03;4.07;;;22.50;69.70;23.10;96547.00;;;;5114434;28;20205;-82
2022/08/31 00:59:30;;;;;;;5.23;3.80;;;22.50;69.70;23.10;96539.00;;;;5114419;28;20267;-82
2022/08/31 01:01:57;;;;;;;3.87;3.40;;;22.50;69.70;23.10;96543.00;;;;5113045;28;20237;-82
2022/08/31 01:04:24;;;;;;;3.70;3.40;;;22.50;69.70;23.10;96537.00;;;;5113799;28;20667;-82
2022/08/31 01:06:54;;;;;;;3.77;3.47;;;22.60;69.70;23.10;96537.00;;;;5113642;28;20247;-83
2022/08/31 01:09:25;;;;;;;4.00;3.40;;;22.60;69.70;23.10;96538.00;;;;5113973;28;20265;-82
2022/08/31 01:11:53;;;;;;;3.47;3.10;;;22.60;69.80;23.10;96547.00;;;;5113861;28;20247;-82
2022/08/31 01:14:21;;;;;;;4.43;3.17;;;22.60;69.80;23.20;96544.00;;;;5113248;28;20203;-83
2022/08/31 01:16:53;;;;;;;3.67;3.37;;;22.60;69.90;23.20;96544.00;;;;5113857;28;20229;-82
2022/08/31 01:19:37;;;;;;;4.70;3.53;;;22.60;69.90;23.20;96543.00;;;;5114760;28;20214;-83
2022/08/31 01:22:15;;;;;;;5.50;3.47;;;22.60;70.00;23.20;96547.00;;;;5114112;28;20258;-82
2022/08/31 01:24:47;;;;;;;3.90;3.60;;;22.70;70.00;23.30;96546.00;;;;5113340;28;20632;-82
2022/08/31 01:27:23;;;;;;;4.53;3.20;;;22.70;69.90;23.30;96550.00;;;;5113539;28;20735;-82
2022/08/31 01:29:50;;;;;;;3.90;3.60;;;22.70;69.90;23.30;96550.00;;;;5113608;28;20258;-82
2022/08/31 01:32:18;;;;;;;6.03;3.70;;;22.70;69.90;23.30;96547.00;;;;5113409;28;20667;-82
2022/08/31 01:34:45;;;;;;;3.90;3.47;;;22.70;69.80;23.30;96549.00;;;;5113079;28;20205;-82
2022/08/31 01:37:12;;;;;;;3.70;3.40;;;22.70;69.80;23.30;96555.00;;;;5113471;28;20684;-82
2022/08/31 01:39:40;;;;;;;3.50;3.23;;;22.70;69.90;23.30;96553.00;;;;5113624;28;20222;-82
2022/08/31 01:42:08;;;;;;;3.63;3.33;;;22.70;70.00;23.30;96553.00;;;;5113467;28;20198;-82
2022/08/31 01:44:35;;;;;;;4.03;3.70;;;22.70;70.10;23.30;96551.00;;;;5112662;28;20278;-82
2022/08/31 01:47:03;;;;;;;3.73;3.33;;;22.70;70.10;23.30;96555.00;;;;5112736;28;20237;-82
2022/08/31 01:49:30;;;;;;;4.50;3.80;;;22.80;70.20;23.30;96556.00;;;;5119006;28;20753;-82
2022/08/31 01:51:58;;;;;;;3.53;3.23;;;22.80;70.10;23.40;96549.00;;;;5118446;28;20194;-82
2022/08/31 01:54:26;;;;;;;3.70;3.40;;;22.80;70.10;23.40;96546.00;;;;5119499;28;20290;-82
2022/08/31 01:56:54;;;;;;;4.20;3.27;;;22.80;70.10;23.40;96553.00;;;;5119832;28;20232;-82
2022/08/31 01:59:23;;;;;;;4.47;3.60;;;22.80;70.10;23.40;96540.00;;;;5119278;28;20245;-82
2022/08/31 02:01:54;;;;;;;3.93;3.63;;;22.80;70.10;23.40;96545.00;;;;5119423;28;20214;-82
2022/08/31 02:04:25;;;;;;;3.80;3.50;;;22.80;69.90;23.40;96545.00;;;;5118386;28;20816;-82
2022/08/31 02:06:56;;;;;;;4.27;3.80;;;22.80;69.90;23.40;96543.00;;;;5118795;28;20195;-82
2022/08/31 02:09:24;;;;;;;3.20;3.00;;;22.80;69.80;23.40;96548.00;;;;5118749;28;20224;-82
2022/08/31 02:11:52;;;;;;;3.50;3.20;;;22.80;69.80;23.40;96545.00;;;;5118229;28;20195;-82
2022/08/31 02:14:20;;;;;;;4.23;3.40;;;22.80;69.80;23.40;96548.00;;;;5121837;28;20237;-82
2022/08/31 02:16:49;;;;;;;3.80;3.40;;;22.80;69.90;23.40;96547.00;;;;5122191;28;20224;-82
2022/08/31 02:19:17;;;;;;;4.93;3.70;;;22.80;70.10;23.40;96544.00;;;;5121298;28;20218;-82
2022/08/31 02:21:44;;;;;;;3.80;3.40;;;22.80;70.10;23.40;96542.00;;;;5121802;28;20260;-82
2022/08/31 02:24:11;;;;;;;4.10;3.80;;;22.80;70.00;23.40;96545.00;;;;5121638;28;20253;-83
2022/08/31 02:26:39;;;;;;;3.50;3.20;;;22.80;70.10;23.40;96542.00;;;;5121484;28;20566;-82
2022/08/31 02:29:07;;;;;;;4.00;3.60;;;22.80;70.10;23.30;96538.00;;;;5121311;28;20233;-82
2022/08/31 02:31:35;;;;;;;3.90;3.60;;;22.80;70.00;23.30;96543.00;;;;5111410;22;20269;-86
2022/08/31 02:34:04;;;;;;;4.10;3.50;;;22.80;70.10;23.30;96541.00;;;;5095546;28;20205;-85
2022/08/31 02:36:31;;;;;;;3.60;3.30;;;22.80;70.10;23.30;96544.00;;;;5095301;28;20227;-85
2022/08/31 02:38:58;;;;;;;4.47;3.70;;;22.80;70.10;23.30;96540.00;;;;5095466;28;20203;-85
2022/08/31 02:41:25;;;;;;;4.47;4.07;;;22.80;70.00;23.30;96533.00;;;;5112050;28;20313;-85
2022/08/31 02:43:53;;;;;;;3.67;3.23;;;22.70;70.00;23.30;96537.00;;;;5115581;28;20198;-85
2022/08/31 02:46:20;;;;;;;3.93;3.60;;;22.80;70.10;23.30;96536.00;;;;5115235;27;20261;-85
2022/08/31 02:48:47;;;;;;;4.07;3.63;;;22.70;70.10;23.30;96538.00;;;;5116247;28;20225;-85
2022/08/31 02:51:16;;;;;;;4.07;3.53;;;22.70;70.10;23.30;96537.00;;;;5115662;28;20301;-85
2022/08/31 02:53:43;;;;;;;3.30;3.00;;;22.70;70.20;23.20;96528.00;;;;5116300;28;20294;-85
2022/08/31 02:56:13;;;;;;;3.53;3.23;;;22.70;70.20;23.20;96527.00;;;;5116229;28;20206;-85
2022/08/31 02:58:41;;;;;;;3.80;3.50;;;22.70;70.30;23.20;96525.00;;;;5115938;28;20266;-85
2022/08/31 03:01:08;;;;;;;3.80;3.50;;;22.70;70.30;23.20;96521.00;;;;5116004;28;20309;-85
2022/08/31 03:03:37;;;;;;;5.87;3.60;;;22.70;70.40;23.20;96528.00;;;;5116011;28;20281;-85
2022/08/31 03:06:05;;;;;;;3.93;3.53;;;22.60;70.50;23.20;96531.00;;;;5115505;28;20201;-85
2022/08/31 03:08:33;;;;;;;4.30;3.90;;;22.60;70.50;23.10;96523.00;;;;5115356;27;20289;-85
2022/08/31 03:11:01;;;;;;;3.87;3.57;;;22.60;70.50;23.10;96524.00;;;;5114931;28;20270;-85
2022/08/31 03:13:29;;;;;;;3.23;3.03;;;22.60;70.60;23.10;96520.00;;;;5114975;28;20230;-85
2022/08/31 03:15:56;;;;;;;4.23;3.83;;;22.60;70.60;23.10;96521.00;;;;5114495;28;20197;-85
2022/08/31 03:18:23;;;;;;;3.60;3.27;;;22.60;70.70;23.10;96515.00;;;;5114834;28;20199;-85
2022/08/31 03:20:50;;;;;;;3.87;3.57;;;22.50;70.80;23.00;96517.00;;;;5114597;28;20314;-86
2022/08/31 03:23:17;;;;;;;4.13;3.73;;;22.50;70.80;23.00;96524.00;;;;5114883;28;20195;-85
2022/08/31 03:25:46;;;;;;;4.13;3.83;;;22.50;70.80;23.00;96525.00;;;;5113536;28;20297;-86
2022/08/31 03:28:13;;;;;;;4.97;3.77;;;22.50;70.80;23.00;96531.00;;;;5114842;28;20206;-85
2022/08/31 03:30:41;;;;;;;4.17;3.77;;;22.50;70.80;23.00;96524.00;;;;5114462;28;20235;-85
2022/08/31 03:33:09;;;;;;;4.13;3.63;;;22.50;70.80;23.00;96532.00;;;;5114710;28;20739;-85
2022/08/31 03:35:36;;;;;;;4.20;3.90;;;22.50;70.80;23.00;96537.00;;;;5122610;28;20217;-85
2022/08/31 03:38:04;;;;;;;3.80;3.50;;;22.40;70.90;23.00;96534.00;;;;5114888;28;20286;-85
2022/08/31 03:40:31;;;;;;;4.37;3.73;;;22.40;70.90;23.00;96532.00;;;;5114529;28;20309;-85
2022/08/31 03:43:00;;;;;;;3.87;3.53;;;22.40;71.00;23.00;96536.00;;;;5114378;28;20678;-85
2022/08/31 03:45:28;;;;;;;4.73;4.07;;;22.40;71.10;23.00;96541.00;;;;5114169;28;20226;-85
2022/08/31 03:47:56;;;;;;;4.10;3.70;;;22.40;71.00;22.90;96539.00;;;;5114220;28;20243;-85
2022/08/31 03:50:23;;;;;;;3.87;3.47;;;22.40;71.10;22.90;96536.00;;;;5114286;28;20218;-85
2022/08/31 03:52:53;;;;;;;4.23;3.83;;;22.40;71.10;22.90;96549.00;;;;5114033;28;20232;-85
2022/08/31 03:55:20;;;;;;;4.47;4.07;;;22.40;71.10;22.90;96549.00;;;;5113956;28;20243;-85
2022/08/31 03:57:47;;;;;;;3.63;3.33;;;22.40;71.10;22.90;96551.00;;;;5114201;28;20675;-85
2022/08/31 04:00:16;;;;;;;4.60;3.70;;;22.40;71.10;22.90;96549.00;;;;5113817;28;20257;-85
2022/08/31 04:02:44;;;;;;;4.30;3.90;;;22.40;71.20;22.90;96558.00;;;;5114242;28;20647;-85
2022/08/31 04:05:12;;;;;;;4.30;3.93;;;22.40;71.20;22.90;96557.00;;;;5113614;28;20699;-85
2022/08/31 04:07:40;;;;;;;4.20;3.80;;;22.40;71.10;22.90;96557.00;;;;5113789;28;20209;-85
2022/08/31 04:10:09;;;;;;;4.30;4.00;;;22.40;71.20;22.90;96553.00;;;;5113608;28;20249;-85
2022/08/31 04:12:36;;;;;;;3.90;3.60;;;22.40;71.20;22.90;96562.00;;;;5113862;28;20206;-85
2022/08/31 04:15:04;;;;;;;4.37;3.87;;;22.40;71.20;22.90;96566.00;;;;5116308;28;20201;-85
2022/08/31 04:17:32;;;;;;;3.93;3.63;;;22.40;71.20;22.90;96557.00;;;;5113944;28;20604;-86
2022/08/31 04:19:59;;;;;;;4.23;3.70;;;22.40;71.20;22.90;96564.00;;;;5113058;28;20310;-85
2022/08/31 04:22:27;;;;;;;4.33;3.93;;;22.40;71.20;22.90;96562.00;;;;5112679;28;20309;-85
2022/08/31 04:24:54;;;;;;;4.97;4.00;;;22.40;71.20;22.90;96559.00;;;;5113700;28;20285;-86
2022/08/31 04:27:21;;;;;;;4.23;3.83;;;22.30;71.20;22.90;96560.00;;;;5113260;28;20234;-85
2022/08/31 04:29:48;;;;;;;4.20;3.80;;;22.30;71.10;22.90;96559.00;;;;5113334;28;20699;-85
2022/08/31 04:32:15;;;;;;;3.87;3.57;;;22.30;71.10;22.80;96563.00;;;;5114071;28;20230;-85
2022/08/31 04:34:44;;;;;;;4.63;4.03;;;22.30;71.10;22.80;96567.00;;;;5113529;28;20297;-85
2022/08/31 04:37:13;;;;;;;4.07;3.70;;;22.30;71.20;22.80;96556.00;;;;5113517;28;20233;-85
2022/08/31 04:39:41;;;;;;;4.37;3.97;;;22.30;71.30;22.80;96549.00;;;;5113321;28;20199;-85
2022/08/31 04:42:10;;;;;;;4.50;3.97;;;22.30;71.30;22.80;96550.00;;;;5113097;28;20698;-85
2022/08/31 04:44:38;;;;;;;4.17;3.87;;;22.30;71.40;22.80;96542.00;;;;5113267;28;20289;-85
2022/08/31 04:47:06;;;;;;;4.40;4.07;;;22.30;71.40;22.70;96548.00;;;;5113241;28;20233;-85
2022/08/31 04:49:33;;;;;;;4.13;3.73;;;22.30;71.30;22.70;96551.00;;;;5113974;28;20241;-86
2022/08/31 04:52:01;;;;;;;4.77;3.97;;;22.30;71.40;22.70;96554.00;;;;5114135;28;20225;-85
2022/08/31 04:54:29;;;;;;;3.97;3.63;;;22.20;71.40;22.70;96558.00;;;;5119570;28;20229;-85
2022/08/31 04:56:57;;;;;;;4.13;3.80;;;22.20;71.40;22.70;96569.00;;;;5115845;28;20198;-85
2022/08/31 04:59:26;;;;;;;4.20;3.40;;;22.20;71.40;22.80;96570.00;;;;5114943;28;20248;-85
2022/08/31 05:01:54;;;;;;;4.17;3.83;;;22.20;71.50;22.80;96567.00;;;;5114621;28;20254;-85
2022/08/31 05:04:23;;;;;;;4.03;3.73;;;22.20;71.50;22.80;96569.00;;;;5113412;28;20217;-85
2022/08/31 05:06:51;;;;;;;3.80;3.50;;;22.20;72.30;22.80;96575.00;;;;5113355;28;20199;-85
2022/08/31 05:09:23;;;;;;;4.20;3.80;;;22.30;71.80;22.80;96575.00;;;;5113096;28;20229;-85
2022/08/31 05:11:52;;;;;;;4.67;4.10;;;22.30;71.80;22.80;96573.00;;;;5113220;28;20237;-85
2022/08/31 05:14:20;;;;;;;5.13;3.83;;;22.30;71.80;22.90;96570.00;;;;5112849;28;20190;-85
2022/08/31 05:16:48;;;;;;;4.10;3.80;;;22.30;71.80;22.90;96566.00;;;;5113022;28;20198;-85
2022/08/31 05:19:16;;;;;;;3.63;3.33;;;22.30;71.90;22.90;96564.00;;;;5112756;28;20285;-85
2022/08/31 05:21:44;;;;;;;3.93;3.63;;;22.30;72.00;23.00;96566.00;;;;5112263;28;20222;-85
2022/08/31 05:24:15;;;;;;;4.70;4.30;;;22.30;72.10;23.00;96562.00;;;;5112324;28;20245;-85
2022/08/31 05:26:48;;;;;;;3.73;3.53;;;22.40;72.00;23.00;96566.00;;;;5112440;28;20198;-85
2022/08/31 05:29:17;;;;;;;5.57;3.60;;;22.40;71.90;23.00;96570.00;;;;5112504;28;20198;-85
2022/08/31 05:31:46;;;;;;;4.10;3.80;;;22.40;71.80;23.00;96569.00;;;;5112182;28;20233;-85
2022/08/31 05:34:14;;;;;;;4.17;3.77;;;22.40;71.90;23.00;96573.00;;;;5112589;28;20236;-85
2022/08/31 05:36:43;;;;;;;4.27;3.87;;;22.40;71.80;23.00;96572.00;;;;5113663;28;20240;-85
2022/08/31 05:39:13;;;;;;;4.27;3.67;;;22.40;71.90;23.00;96573.00;;;;5112296;28;20254;-86
2022/08/31 05:41:44;;;;;;;4.20;3.80;;;22.50;72.10;23.10;96575.00;;;;5111663;28;20703;-86
2022/08/31 05:44:12;;;;;;;3.73;3.40;;;22.40;72.10;23.10;96576.00;;;;5112254;28;20234;-86
2022/08/31 05:46:40;;;;;;;4.17;3.77;;;22.50;72.60;23.20;96576.00;;;;5111889;28;20230;-85
2022/08/31 05:49:09;;;;;;;4.50;4.10;;;22.50;72.20;23.20;96574.00;;;;5111653;28;20383;-85
2022/08/31 05:51:37;;;;;;;4.57;3.70;;;22.50;72.10;23.20;96576.00;;;;5112000;28;20293;-85
2022/08/31 05:54:05;;;;;;;4.10;3.67;;;22.50;72.10;23.30;96570.00;;;;5111799;28;20199;-86
2022/08/31 05:56:33;;;;;;;4.13;3.73;;;22.50;72.00;23.30;96577.00;;;;5112272;28;20229;-85
2022/08/31 05:59:02;;;;;;;3.93;3.53;;;22.60;72.10;23.30;96575.00;;;;5111457;28;20198;-86
2022/08/31 06:01:32;;;;;;;4.40;4.00;;;22.60;72.10;23.30;96577.00;;;;5112064;28;20670;-86
2022/08/31 06:04:01;;;;;;;3.90;3.60;;;22.60;72.10;23.30;96570.00;;;;5112804;28;20198;-86
2022/08/31 06:06:29;;;;;;;4.30;3.90;;;22.60;72.10;23.30;96574.00;;;;5112797;28;20226;-87
2022/08/31 06:08:58;;;;;;;4.67;4.13;;;22.60;72.00;23.30;96575.00;;;;5113560;28;20611;-87
2022/08/31 06:11:29;;;;;;;4.13;3.83;;;22.60;71.80;23.40;96575.00;;;;5119481;28;20272;-86
2022/08/31 06:13:59;;;;;;;4.50;4.10;;;22.70;71.80;23.40;96580.00;;;;5121982;28;20199;-86
2022/08/31 06:16:31;;;;;;;4.03;3.63;;;22.70;71.80;23.40;96577.00;;;;5113850;28;20198;-87
2022/08/31 06:19:02;;;;;;;4.03;3.60;;;22.70;71.80;23.40;96588.00;;;;5113081;28;20264;-87
2022/08/31 06:21:32;;;;;;;4.73;4.00;;;22.70;71.80;23.40;96590.00;;;;5113286;28;20218;-85
2022/08/31 06:24:02;;;;;;;4.83;3.77;;;22.70;71.70;23.40;96594.00;;;;5113645;28;20195;-86
2022/08/31 06:26:35;;;;;;;4.73;3.93;;;22.70;71.40;23.40;96593.00;;;;5113031;28;20195;-86
2022/08/31 06:29:08;;;;;;;4.30;3.53;;;22.80;71.40;23.50;96598.00;;;;5110866;28;20222;-87
2022/08/31 06:31:45;;;;;;;4.43;3.30;;;22.70;71.30;23.50;96607.00;;;;5112394;28;20636;-86
2022/08/31 06:34:13;;;;;;;3.80;3.50;;;22.80;71.50;23.50;96608.00;;;;5115464;28;20275;-86
2022/08/31 06:36:42;;;;;;;3.63;3.33;;;22.80;71.30;23.50;96612.00;;;;5118268;28;20204;-86
2022/08/31 06:39:11;;;;;;;4.30;3.37;;;22.80;71.30;23.50;96617.00;;;;5114874;28;20210;-85
2022/08/31 06:41:41;;;;;;;3.60;3.40;;;22.80;71.40;23.50;96613.00;;;;5111636;28;20218;-86
2022/08/31 06:44:13;;;;;;;3.83;3.53;;;22.80;71.40;23.50;96618.00;;;;5104230;28;20191;-86
2022/08/31 06:46:42;;;;;;;4.23;3.93;;;22.90;71.40;23.60;96617.00;;;;5107294;28;20183;-86
2022/08/31 06:49:10;;;;;;;4.50;3.50;;;22.80;71.20;23.60;96621.00;;;;5117520;28;20205;-87
2022/08/31 06:51:37;;;;;;;4.47;3.90;;;22.90;71.30;23.60;96619.00;;;;5105674;28;20251;-86
2022/08/31 06:54:07;;;;;;;4.07;3.40;;;22.90;71.20;23.60;96619.00;;;;5110300;28;20274;-86
2022/08/31 06:56:35;;;;;;;4.47;4.10;;;22.90;71.20;23.60;96618.00;;;;5110817;28;20198;-86
2022/08/31 06:59:04;;;;;;;4.07;3.67;;;22.90;71.00;23.60;96609.00;;;;5108593;28;20195;-86
2022/08/31 07:01:35;;;;;;;3.70;3.40;;;23.00;71.00;23.70;96622.00;;;;5114743;28;20289;-86
2022/08/31 07:04:09;;;;;;;3.83;3.53;;;23.00;70.80;23.60;96612.00;;;;5114843;28;20238;-86
2022/08/31 07:06:39;;;;;;;3.17;2.93;;;23.00;70.60;23.60;96612.00;;;;5115400;28;20195;-86
2022/08/31 07:09:10;;;;;;;3.60;3.30;;;23.00;70.80;23.70;96617.00;;;;5114733;28;20190;-86
2022/08/31 07:11:41;;;;;;;3.93;3.63;;;23.00;70.90;23.70;96613.00;;;;5114802;28;20263;-86
2022/08/31 07:14:12;;;;;;;3.57;3.27;;;23.00;71.00;23.70;96622.00;;;;5115029;28;20255;-87
2022/08/31 07:16:40;;;;;;;3.83;3.53;;;23.00;70.80;23.70;96624.00;;;;5115113;28;20203;-86
2022/08/31 07:19:10;;;;;;;3.70;3.40;;;23.00;70.90;23.70;96617.00;;;;5115354;28;20212;-86
2022/08/31 07:21:42;;;;;;;4.17;3.37;;;23.00;70.80;23.80;96624.00;;;;5115039;28;20307;-86
2022/08/31 07:24:11;;;;;;;4.50;4.10;;;23.10;70.90;23.80;96625.00;;;;5115568;28;20230;-86
2022/08/31 07:26:46;;;;;;;3.53;3.33;;;23.10;71.10;23.80;96631.00;;;;5119764;28;20199;-86
2022/08/31 07:29:17;;;;;;;4.43;3.70;;;23.10;70.90;23.80;96642.00;;;;5117094;28;20646;-86
2022/08/31 07:31:45;;;;;;;4.63;3.97;;;23.10;70.80;23.80;96641.00;;;;5120378;28;20226;-86
2022/08/31 07:34:16;;;;;;;5.30;3.40;;;23.10;70.90;23.80;96647.00;;;;5124790;28;20206;-86
2022/08/31 07:42:21;;;;;;;3.70;3.40;;;23.20;70.90;23.90;96647.00;;;;5114729;28;20255;-86
2022/08/31 07:44:49;;;;;;;5.77;3.97;;;23.20;70.80;24.00;96646.00;;;;5114245;28;20222;-86
2022/08/31 07:47:19;;;;;;;5.10;3.83;;;23.20;70.60;24.00;96643.00;;;;5114162;28;20215;-86
2022/08/31 07:49:50;;;;;;;3.37;3.07;;;23.30;70.60;24.00;96641.00;;;;5114277;28;20226;-86
2022/08/31 07:52:20;;;;;;;4.30;3.33;;;23.30;70.50;24.00;96647.00;;;;5114542;28;20207;-86
2022/08/31 07:54:48;;;;;;;3.70;3.40;;;23.30;70.70;24.00;96650.00;;;;5114533;28;20194;-86
2022/08/31 07:57:17;;;;;;;3.87;3.57;;;23.30;70.80;24.00;96645.00;;;;5114877;28;20234;-86
2022/08/31 07:59:46;;;;;;;4.17;3.77;;;23.30;70.60;24.10;96644.00;;;;5114913;28;20220;-86
2022/08/31 08:02:15;;;;;;;4.13;3.67;;;23.30;70.60;24.10;96644.00;;;;5114955;28;20219;-86
2022/08/31 08:04:43;;;;;;;4.40;4.00;;;23.30;70.70;24.10;96641.00;;;;5114715;28;20201;-86
2022/08/31 08:07:16;;;;;;;3.63;3.33;;;23.40;70.90;24.10;96645.00;;;;5113861;28;20195;-86
2022/08/31 08:09:43;;;;;;;3.77;3.40;;;23.40;70.90;24.20;96649.00;;;;5113682;28;20249;-87
2022/08/31 08:12:10;;;;;;;4.17;3.87;;;23.40;70.90;24.20;96648.00;;;;5113762;28;20775;-86
2022/08/31 08:14:40;;;;;;;4.13;3.60;;;23.40;70.70;24.20;96648.00;;;;5113761;28;20196;-86
2022/08/31 08:17:08;;;;;;;3.73;3.33;;;23.50;70.50;24.30;96661.00;;;;5114170;28;20233;-86
2022/08/31 08:19:36;;;;;;;3.77;3.43;;;23.50;70.40;24.30;96668.00;;;;5114112;28;20289;-86
2022/08/31 08:22:04;;;;;;;4.10;3.03;;;23.50;70.20;24.40;96663.00;;;;5113553;28;20257;-87
2022/08/31 08:24:33;;;;;;;4.50;3.40;;;23.50;70.10;24.40;96661.00;;;;5113091;28;20288;-86
2022/08/31 08:27:00;;;;;;;3.90;3.60;;;23.60;69.70;24.40;96665.00;;;;5113014;28;20663;-86
2022/08/31 08:29:27;;;;;;;4.77;3.40;;;23.60;69.40;24.40;96654.00;;;;5113602;28;20850;-86
2022/08/31 08:31:54;;;;;;;3.30;3.10;;;23.60;69.30;24.40;96653.00;;;;5103623;23;20238;-88
2022/08/31 08:34:24;;;;;;;4.53;3.70;;;23.70;69.10;24.40;96663.00;;;;5093823;28;20667;-88
2022/08/31 08:37:01;;;;;;;4.67;4.07;;;23.70;69.20;24.50;96664.00;;;;5094171;28;20256;-88
2022/08/31 08:39:31;;;;;;;3.93;3.63;;;23.70;69.20;24.50;96666.00;;;;5087619;28;20224;-88
2022/08/31 08:42:04;;;;;;;3.60;3.30;;;23.80;69.30;24.60;96670.00;;;;5073080;28;20257;-88
2022/08/31 08:44:33;;;;;;;4.27;3.53;;;23.80;69.10;24.60;96662.00;;;;5072684;28;20227;-87
2022/08/31 08:47:06;;;;;;;3.53;3.20;;;23.80;68.80;24.70;96671.00;;;;5072844;28;20625;-89
2022/08/31 08:49:45;;;;;;;3.60;3.20;;;23.90;69.00;24.80;96665.00;;;;5072960;28;20220;-88
2022/08/31 08:52:23;;;;;;;3.40;3.10;;;23.90;69.10;24.90;96675.00;;;;5072240;28;20311;-88
2022/08/31 08:54:55;;;;;;;4.40;3.20;;;24.00;68.70;25.00;96674.00;;;;5069834;28;20265;-88
2022/08/31 08:57:34;;;;;;;3.97;3.67;;;24.10;68.80;25.20;96668.00;;;;5070759;28;20720;-88
2022/08/31 09:00:09;;;;;;;4.77;3.80;;;24.20;68.50;25.30;96680.00;;;;5070022;28;20751;-88
2022/08/31 09:02:50;;;;;;;3.30;3.00;;;24.30;68.30;25.40;96684.00;;;;5069841;28;20237;-87
2022/08/31 09:05:51;;;;;;;4.40;3.33;;;24.40;68.50;25.50;96678.00;;;;5069437;28;20229;-88
2022/08/31 09:09:11;;;;;;;5.20;3.30;;;24.40;68.20;25.60;96691.00;;;;5070912;28;20208;-89
2022/08/31 09:11:57;;;;;;;3.60;3.30;;;24.60;67.80;25.70;96695.00;;;;5069148;28;20203;-88
2022/08/31 09:14:49;;;;;;;3.53;3.20;;;24.70;67.60;25.80;96695.00;;;;5072173;28;20211;-87
2022/08/31 09:17:41;;;;;;;3.23;2.93;;;24.80;67.50;25.80;96688.00;;;;5072321;28;20210;-87
2022/08/31 09:20:12;;;;;;;3.50;3.20;;;24.80;67.60;25.90;96685.00;;;;5071339;28;20220;-88
2022/08/31 09:22:47;;;;;;;3.20;2.90;;;24.90;67.60;25.90;96684.00;;;;5071511;28;20226;-88
2022/08/31 09:25:28;;;;;;;3.40;3.10;;;24.90;67.30;26.00;96685.00;;;;5071555;28;20203;-88
2022/08/31 09:28:02;;;;;;;4.53;3.13;;;24.90;67.20;26.00;96680.00;;;;5072963;28;20208;-88
2022/08/31 09:30:50;;;;;;;3.17;2.93;;;25.00;67.00;26.00;96682.00;;;;5072738;28;20279;-88
2022/08/31 09:33:24;;;;;;;3.43;3.13;;;25.10;66.70;26.00;96677.00;;;;5073327;28;20245;-88
2022/08/31 09:36:15;;;;;;;3.10;2.80;;;25.10;66.70;26.10;96683.00;;;;5072517;28;20202;-87
2022/08/31 09:38:46;;;;;;;3.17;2.80;;;25.10;66.80;26.20;96683.00;;;;5072896;28;20200;-87
2022/08/31 09:41:31;;;;;;;3.53;3.23;;;25.20;66.70;26.30;96680.00;;;;5073130;28;20200;-89
2022/08/31 09:44:34;;;;;;;3.90;3.60;;;25.30;66.10;26.40;96679.00;;;;5072787;28;20223;-88
2022/08/31 09:47:41;;;;;;;6.80;3.30;;;25.40;66.20;26.50;96685.00;;;;5071948;28;20248;-88
2022/08/31 09:50:09;;;;;;;3.47;3.17;;;25.40;65.60;26.50;96687.00;;;;5072053;28;20687;-87
2022/08/31 09:55:29;;;;;;;3.43;3.13;;;25.60;65.30;26.70;96673.00;;;;5072374;28;20214;-88
2022/08/31 09:58:13;;;;;;;3.50;3.20;;;25.60;65.20;26.70;96685.00;;;;5072251;28;20272;-88
2022/08/31 10:00:45;;;;;;;4.60;3.23;;;25.70;65.00;26.80;96683.00;;;;5072650;28;20219;-88
2022/08/31 10:03:27;;;;;;;3.07;2.87;;;25.70;64.20;26.80;96683.00;;;;5071436;28;20749;-88
2022/08/31 10:05:56;;;;;;;3.07;2.87;;;25.80;63.60;26.80;96680.00;;;;5071523;28;20196;-87
2022/08/31 10:08:45;;;;;;;3.73;3.43;;;25.80;63.90;26.80;96683.00;;;;5071758;28;20226;-88
2022/08/31 10:11:23;;;;;;;3.47;3.17;;;25.90;63.10;26.80;96682.00;;;;5064521;28;20633;-89
2022/08/31 10:14:03;;;;;;;3.37;3.03;;;25.90;63.50;26.80;96681.00;;;;5071588;28;20203;-89
2022/08/31 10:16:41;;;;;;;4.70;3.00;;;25.90;63.30;26.80;96685.00;;;;5071120;28;20227;-88
2022/08/31 10:19:20;;;;;;;5.57;3.03;;;25.90;62.90;26.80;96690.00;;;;5071355;28;20630;-87
2022/08/31 10:24:32;;;;;;;3.87;3.10;;;25.90;63.10;26.80;96686.00;;;;5074189;28;20764;-83
2022/08/31 10:27:16;;;;;;;3.27;2.70;;;25.90;63.40;26.80;96692.00;;;;5075038;28;20210;-83
2022/08/31 10:30:02;;;;;;;3.50;3.20;;;26.00;63.40;26.80;96692.00;;;;5075036;28;20222;-82
2022/08/31 10:32:37;;;;;;;3.03;2.83;;;26.00;63.20;26.80;96700.00;;;;5065798;28;20230;-82
2022/08/31 10:35:19;;;;;;;3.00;2.70;;;26.00;62.50;26.80;96697.00;;;;5058151;28;20249;-83
2022/08/31 10:38:06;;;;;;;3.87;2.77;;;26.00;62.60;26.80;96700.00;;;;5059171;28;20657;-82
2022/08/31 10:40:47;;;;;;;3.30;3.00;;;26.00;62.30;26.80;96701.00;;;;5058369;28;20927;-83
2022/08/31 10:43:20;;;;;;;4.60;3.03;;;26.00;63.00;26.80;96705.00;;;;5059685;28;20714;-82
2022/08/31 10:45:51;;;;;;;4.13;2.97;;;26.00;63.30;26.80;96709.00;;;;5056461;28;20201;-84
2022/08/31 10:48:21;;;;;;;2.87;2.63;;;26.00;63.50;26.90;96722.00;;;;5054540;28;20200;-83
2022/08/31 10:51:19;;;;;;;3.50;3.17;;;26.00;63.60;26.90;96716.00;;;;5055108;28;20217;-84
2022/08/31 10:54:02;;;;;;;3.10;2.90;;;26.00;63.00;26.80;96718.00;;;;5055208;28;20196;-82
2022/08/31 10:56:49;;;;;;;2.93;2.60;;;26.00;63.10;26.80;96724.00;;;;5054436;28;20704;-84
2022/08/31 10:59:30;;;;;;;4.10;3.10;;;26.00;63.20;26.80;96722.00;;;;5055231;28;20259;-83
2022/08/31 11:02:40;;;;;;;3.27;2.60;;;26.00;63.20;26.80;96728.00;;;;5059919;28;20591;-84
2022/08/31 11:05:34;;;;;;;3.10;2.80;;;26.00;63.40;26.70;96724.00;;;;5074847;28;20635;-84
2022/08/31 11:08:47;;;;;;;3.13;2.83;;;26.00;63.30;26.70;96735.00;;;;5075058;28;20217;-83
2022/08/31 11:11:32;;;;;;;2.47;2.03;;;25.90;62.60;26.60;96739.00;;;;5074018;28;20200;-83
2022/08/31 11:14:21;;;;;;;2.17;2.00;;;25.90;60.60;26.40;96742.00;;;;5074911;28;20269;-81
2022/08/31 11:17:17;;;;;;;2.63;1.67;;;25.80;60.10;26.30;96748.00;;;;5074966;28;20302;-81
2022/08/31 11:20:25;;;;;;;2.53;1.90;;;25.70;59.80;26.10;96744.00;;;;5075927;28;20638;-83
2022/08/31 11:23:21;;;;;;;2.63;1.80;;;25.60;59.40;25.90;96744.00;;;;5073801;28;20613;-83
2022/08/31 11:26:46;;;;;;;1.90;1.77;;;25.50;59.00;25.70;96748.00;;;;5074089;28;20279;-83
2022/08/31 11:29:30;;;;;;;2.73;2.00;;;25.40;59.50;25.60;96754.00;;;;5059341;28;20249;-83
2022/08/31 11:32:11;;;;;;;1.93;1.53;;;25.20;61.90;25.40;96751.00;;;;5074329;28;20249;-83